sensor_id;sensor_type;location;lat;lon;timestamp;P1;durP1;ratioP1;P2;durP2;ratioP2
30458;SDS011;17254;50.976;7.034;2023-03-29T00:00:00;7.00;;;5.20;;
30458;SDS011;17254;50.976;7.034;2023-03-29T00:00:17;7.55;;;5.53;;
30458;SDS011;17254;50.976;7.034;2023-03-29T00:00:23;7.80;;;5.75;;
30458;SDS011;17254;50.976;7.034;2023-03-29T00:00:29;8.43;;;5.97;;
30458;SDS011;17254;50.976;7.034;2023-03-29T00:00:35;9.00;;;5.93;;
30458;SDS011;17254;50.976;7.034;2023-03-29T00:00:41;9.13;;;5.97;;
30458;SDS011;17254;50.976;7.034;2023-03-29T00:00:47;8.80;;;6.10;;
30458;SDS011;17254;50.976;7.034;2023-03-29T00:00:54;8.73;;;6.20;;
30458;SDS011;17254;50.976;7.034;2023-03-29T00:01:04;7.71;;;6.05;;
30458;SDS011;17254;50.976;7.034;2023-03-29T00:01:11;7.23;;;6.00;;
30458;SDS011;17254;50.976;7.034;2023-03-29T00:01:17;7.32;;;6.00;;
30458;SDS011;17254;50.976;7.034;2023-03-29T00:01:25;7.37;;;5.90;;
30458;SDS011;17254;50.976;7.034;2023-03-29T00:01:35;7.47;;;6.00;;
30458;SDS011;17254;50.976;7.034;2023-03-29T00:01:41;7.80;;;6.05;;
30458;SDS011;17254;50.976;7.034;2023-03-29T00:01:47;7.57;;;6.00;;
30458;SDS011;17254;50.976;7.034;2023-03-29T00:01:54;7.70;;;5.94;;
30458;SDS011;17254;50.976;7.034;2023-03-29T00:02:00;7.65;;;6.00;;
30458;SDS011;17254;50.976;7.034;2023-03-29T00:02:06;7.88;;;6.00;;
30458;SDS011;17254;50.976;7.034;2023-03-29T00:02:13;9.33;;;6.07;;
30458;SDS011;17254;50.976;7.034;2023-03-29T00:02:20;9.80;;;5.93;;
30458;SDS011;17254;50.976;7.034;2023-03-29T00:02:34;10.41;;;6.19;;
30458;SDS011;17254;50.976;7.034;2023-03-29T00:02:40;8.95;;;5.85;;
30458;SDS011;17254;50.976;7.034;2023-03-29T00:02:47;8.40;;;5.80;;
30458;SDS011;17254;50.976;7.034;2023-03-29T00:02:54;7.14;;;5.50;;
30458;SDS011;17254;50.976;7.034;2023-03-29T00:03:00;6.92;;;5.48;;
30458;SDS011;17254;50.976;7.034;2023-03-29T00:03:08;7.14;;;5.54;;
30458;SDS011;17254;50.976;7.034;2023-03-29T00:03:14;7.10;;;5.63;;
30458;SDS011;17254;50.976;7.034;2023-03-29T00:03:20;7.33;;;5.83;;
30458;SDS011;17254;50.976;7.034;2023-03-29T00:03:26;7.25;;;5.82;;
30458;SDS011;17254;50.976;7.034;2023-03-29T00:03:32;7.30;;;5.80;;
30458;SDS011;17254;50.976;7.034;2023-03-29T00:03:38;7.20;;;5.87;;
30458;SDS011;17254;50.976;7.034;2023-03-29T00:03:48;7.80;;;6.04;;
30458;SDS011;17254;50.976;7.034;2023-03-29T00:03:54;7.95;;;6.10;;
30458;SDS011;17254;50.976;7.034;2023-03-29T00:04:01;7.90;;;6.00;;
30458;SDS011;17254;50.976;7.034;2023-03-29T00:04:07;8.23;;;6.17;;
30458;SDS011;17254;50.976;7.034;2023-03-29T00:04:14;8.10;;;6.04;;
30458;SDS011;17254;50.976;7.034;2023-03-29T00:04:23;7.40;;;5.93;;
30458;SDS011;17254;50.976;7.034;2023-03-29T00:04:31;7.40;;;5.83;;
30458;SDS011;17254;50.976;7.034;2023-03-29T00:04:38;7.60;;;5.68;;
30458;SDS011;17254;50.976;7.034;2023-03-29T00:04:45;7.63;;;5.73;;
30458;SDS011;17254;50.976;7.034;2023-03-29T00:04:51;8.13;;;5.77;;
30458;SDS011;17254;50.976;7.034;2023-03-29T00:04:57;8.53;;;5.97;;
30458;SDS011;17254;50.976;7.034;2023-03-29T00:05:06;8.13;;;6.00;;
30458;SDS011;17254;50.976;7.034;2023-03-29T00:05:14;8.07;;;5.75;;
30458;SDS011;17254;50.976;7.034;2023-03-29T00:05:21;8.05;;;5.80;;
30458;SDS011;17254;50.976;7.034;2023-03-29T00:05:29;8.04;;;5.82;;
30458;SDS011;17254;50.976;7.034;2023-03-29T00:05:38;8.13;;;5.83;;
30458;SDS011;17254;50.976;7.034;2023-03-29T00:05:45;8.60;;;6.24;;
30458;SDS011;17254;50.976;7.034;2023-03-29T00:05:51;8.07;;;6.13;;
30458;SDS011;17254;50.976;7.034;2023-03-29T00:06:01;7.69;;;6.06;;
30458;SDS011;17254;50.976;7.034;2023-03-29T00:06:08;8.30;;;6.24;;
30458;SDS011;17254;50.976;7.034;2023-03-29T00:06:19;7.85;;;6.14;;
30458;SDS011;17254;50.976;7.034;2023-03-29T00:06:26;8.54;;;6.24;;
30458;SDS011;17254;50.976;7.034;2023-03-29T00:06:37;8.73;;;6.22;;
30458;SDS011;17254;50.976;7.034;2023-03-29T00:06:46;7.94;;;5.86;;
30458;SDS011;17254;50.976;7.034;2023-03-29T00:06:52;7.88;;;5.78;;
30458;SDS011;17254;50.976;7.034;2023-03-29T00:06:59;7.35;;;5.57;;
30458;SDS011;17254;50.976;7.034;2023-03-29T00:07:08;7.94;;;5.83;;
30458;SDS011;17254;50.976;7.034;2023-03-29T00:07:14;7.55;;;5.60;;
30458;SDS011;17254;50.976;7.034;2023-03-29T00:07:20;7.55;;;5.63;;
30458;SDS011;17254;50.976;7.034;2023-03-29T00:07:27;7.76;;;5.76;;
30458;SDS011;17254;50.976;7.034;2023-03-29T00:07:34;8.06;;;5.82;;
30458;SDS011;17254;50.976;7.034;2023-03-29T00:07:40;7.93;;;6.03;;
30458;SDS011;17254;50.976;7.034;2023-03-29T00:07:46;8.20;;;6.10;;
30458;SDS011;17254;50.976;7.034;2023-03-29T00:07:58;8.70;;;6.30;;
30458;SDS011;17254;50.976;7.034;2023-03-29T00:08:08;7.96;;;6.31;;
30458;SDS011;17254;50.976;7.034;2023-03-29T00:08:18;7.79;;;6.27;;
30458;SDS011;17254;50.976;7.034;2023-03-29T00:08:26;7.93;;;5.80;;
30458;SDS011;17254;50.976;7.034;2023-03-29T00:08:33;7.90;;;5.40;;
30458;SDS011;17254;50.976;7.034;2023-03-29T00:08:42;8.13;;;5.28;;
30458;SDS011;17254;50.976;7.034;2023-03-29T00:08:50;8.40;;;5.20;;
30458;SDS011;17254;50.976;7.034;2023-03-29T00:08:58;7.30;;;5.20;;
30458;SDS011;17254;50.976;7.034;2023-03-29T00:09:05;7.20;;;5.40;;
30458;SDS011;17254;50.976;7.034;2023-03-29T00:09:13;6.92;;;5.42;;
30458;SDS011;17254;50.976;7.034;2023-03-29T00:09:19;6.70;;;5.72;;
30458;SDS011;17254;50.976;7.034;2023-03-29T00:09:26;6.70;;;5.94;;
30458;SDS011;17254;50.976;7.034;2023-03-29T00:09:32;6.63;;;5.75;;
30458;SDS011;17254;50.976;7.034;2023-03-29T00:09:38;7.05;;;5.82;;
30458;SDS011;17254;50.976;7.034;2023-03-29T00:09:45;7.22;;;5.78;;
30458;SDS011;17254;50.976;7.034;2023-03-29T00:09:51;7.80;;;5.57;;
30458;SDS011;17254;50.976;7.034;2023-03-29T00:09:57;8.07;;;5.47;;
30458;SDS011;17254;50.976;7.034;2023-03-29T00:10:04;8.32;;;5.53;;
30458;SDS011;17254;50.976;7.034;2023-03-29T00:10:11;7.90;;;5.40;;
30458;SDS011;17254;50.976;7.034;2023-03-29T00:10:17;7.78;;;5.65;;
30458;SDS011;17254;50.976;7.034;2023-03-29T00:10:25;7.90;;;5.90;;
30458;SDS011;17254;50.976;7.034;2023-03-29T00:10:31;7.57;;;5.83;;
30458;SDS011;17254;50.976;7.034;2023-03-29T00:10:38;8.30;;;6.00;;
30458;SDS011;17254;50.976;7.034;2023-03-29T00:10:47;8.50;;;6.17;;
30458;SDS011;17254;50.976;7.034;2023-03-29T00:10:56;8.45;;;6.10;;
30458;SDS011;17254;50.976;7.034;2023-03-29T00:11:03;8.20;;;5.97;;
30458;SDS011;17254;50.976;7.034;2023-03-29T00:11:09;7.82;;;6.00;;
30458;SDS011;17254;50.976;7.034;2023-03-29T00:11:16;8.08;;;6.04;;
30458;SDS011;17254;50.976;7.034;2023-03-29T00:11:22;7.57;;;5.83;;
30458;SDS011;17254;50.976;7.034;2023-03-29T00:11:29;7.67;;;5.77;;
30458;SDS011;17254;50.976;7.034;2023-03-29T00:11:35;7.85;;;5.88;;
30458;SDS011;17254;50.976;7.034;2023-03-29T00:11:41;7.50;;;5.80;;
30458;SDS011;17254;50.976;7.034;2023-03-29T00:11:47;8.00;;;5.67;;
30458;SDS011;17254;50.976;7.034;2023-03-29T00:11:53;8.65;;;5.80;;
30458;SDS011;17254;50.976;7.034;2023-03-29T00:11:59;9.18;;;5.80;;
30458;SDS011;17254;50.976;7.034;2023-03-29T00:12:06;9.23;;;5.77;;
30458;SDS011;17254;50.976;7.034;2023-03-29T00:12:12;9.27;;;5.80;;
30458;SDS011;17254;50.976;7.034;2023-03-29T00:12:18;8.88;;;5.82;;
30458;SDS011;17254;50.976;7.034;2023-03-29T00:12:24;8.37;;;5.70;;
30458;SDS011;17254;50.976;7.034;2023-03-29T00:12:31;7.83;;;5.60;;
30458;SDS011;17254;50.976;7.034;2023-03-29T00:12:37;8.38;;;5.60;;
30458;SDS011;17254;50.976;7.034;2023-03-29T00:12:44;8.27;;;5.50;;
30458;SDS011;17254;50.976;7.034;2023-03-29T00:12:51;8.03;;;5.40;;
30458;SDS011;17254;50.976;7.034;2023-03-29T00:12:57;7.60;;;5.30;;
30458;SDS011;17254;50.976;7.034;2023-03-29T00:13:03;7.20;;;5.50;;
30458;SDS011;17254;50.976;7.034;2023-03-29T00:13:09;6.97;;;5.60;;
30458;SDS011;17254;50.976;7.034;2023-03-29T00:13:15;6.82;;;5.55;;
30458;SDS011;17254;50.976;7.034;2023-03-29T00:13:22;6.90;;;5.63;;
30458;SDS011;17254;50.976;7.034;2023-03-29T00:13:27;7.45;;;5.85;;
30458;SDS011;17254;50.976;7.034;2023-03-29T00:13:34;7.72;;;5.78;;
30458;SDS011;17254;50.976;7.034;2023-03-29T00:13:40;8.10;;;5.88;;
30458;SDS011;17254;50.976;7.034;2023-03-29T00:13:46;8.32;;;5.95;;
30458;SDS011;17254;50.976;7.034;2023-03-29T00:13:53;8.32;;;6.10;;
30458;SDS011;17254;50.976;7.034;2023-03-29T00:13:59;8.60;;;6.10;;
30458;SDS011;17254;50.976;7.034;2023-03-29T00:14:05;8.33;;;6.27;;
30458;SDS011;17254;50.976;7.034;2023-03-29T00:14:12;8.02;;;6.12;;
30458;SDS011;17254;50.976;7.034;2023-03-29T00:14:18;7.57;;;6.10;;
30458;SDS011;17254;50.976;7.034;2023-03-29T00:14:24;8.20;;;5.97;;
30458;SDS011;17254;50.976;7.034;2023-03-29T00:14:30;8.02;;;5.80;;
30458;SDS011;17254;50.976;7.034;2023-03-29T00:14:36;8.15;;;5.93;;
30458;SDS011;17254;50.976;7.034;2023-03-29T00:14:42;9.20;;;6.15;;
30458;SDS011;17254;50.976;7.034;2023-03-29T00:14:48;9.85;;;6.10;;
30458;SDS011;17254;50.976;7.034;2023-03-29T00:14:54;9.73;;;6.10;;
30458;SDS011;17254;50.976;7.034;2023-03-29T00:15:00;9.40;;;6.07;;
30458;SDS011;17254;50.976;7.034;2023-03-29T00:15:07;9.18;;;5.72;;
30458;SDS011;17254;50.976;7.034;2023-03-29T00:15:13;8.00;;;5.62;;
30458;SDS011;17254;50.976;7.034;2023-03-29T00:15:20;7.30;;;5.70;;
30458;SDS011;17254;50.976;7.034;2023-03-29T00:15:26;7.03;;;5.70;;
30458;SDS011;17254;50.976;7.034;2023-03-29T00:15:31;6.85;;;5.80;;
30458;SDS011;17254;50.976;7.034;2023-03-29T00:15:39;7.67;;;5.80;;
30458;SDS011;17254;50.976;7.034;2023-03-29T00:15:45;7.84;;;5.82;;
30458;SDS011;17254;50.976;7.034;2023-03-29T00:15:52;7.82;;;5.85;;
30458;SDS011;17254;50.976;7.034;2023-03-29T00:15:58;8.20;;;5.97;;
30458;SDS011;17254;50.976;7.034;2023-03-29T00:16:04;8.18;;;5.93;;
30458;SDS011;17254;50.976;7.034;2023-03-29T00:16:10;7.80;;;6.00;;
30458;SDS011;17254;50.976;7.034;2023-03-29T00:16:17;7.60;;;5.90;;
30458;SDS011;17254;50.976;7.034;2023-03-29T00:16:23;7.15;;;5.75;;
30458;SDS011;17254;50.976;7.034;2023-03-29T00:16:29;7.03;;;5.85;;
30458;SDS011;17254;50.976;7.034;2023-03-29T00:16:36;6.93;;;5.97;;
30458;SDS011;17254;50.976;7.034;2023-03-29T00:16:42;6.80;;;5.87;;
30458;SDS011;17254;50.976;7.034;2023-03-29T00:16:49;6.93;;;5.93;;
30458;SDS011;17254;50.976;7.034;2023-03-29T00:16:55;6.70;;;5.77;;
30458;SDS011;17254;50.976;7.034;2023-03-29T00:17:01;6.83;;;5.67;;
30458;SDS011;17254;50.976;7.034;2023-03-29T00:17:07;7.13;;;5.70;;
30458;SDS011;17254;50.976;7.034;2023-03-29T00:17:13;7.32;;;5.70;;
30458;SDS011;17254;50.976;7.034;2023-03-29T00:17:21;7.16;;;5.68;;
30458;SDS011;17254;50.976;7.034;2023-03-29T00:17:27;7.20;;;5.80;;
30458;SDS011;17254;50.976;7.034;2023-03-29T00:17:33;7.20;;;5.93;;
30458;SDS011;17254;50.976;7.034;2023-03-29T00:17:39;7.15;;;5.95;;
30458;SDS011;17254;50.976;7.034;2023-03-29T00:17:45;7.80;;;5.97;;
30458;SDS011;17254;50.976;7.034;2023-03-29T00:17:51;8.02;;;5.90;;
30458;SDS011;17254;50.976;7.034;2023-03-29T00:17:57;8.43;;;5.90;;
30458;SDS011;17254;50.976;7.034;2023-03-29T00:18:03;8.15;;;5.80;;
30458;SDS011;17254;50.976;7.034;2023-03-29T00:18:09;8.07;;;5.75;;
30458;SDS011;17254;50.976;7.034;2023-03-29T00:18:15;7.53;;;5.57;;
30458;SDS011;17254;50.976;7.034;2023-03-29T00:18:21;7.72;;;5.68;;
30458;SDS011;17254;50.976;7.034;2023-03-29T00:18:27;7.50;;;5.67;;
30458;SDS011;17254;50.976;7.034;2023-03-29T00:18:34;7.58;;;5.64;;
30458;SDS011;17254;50.976;7.034;2023-03-29T00:18:40;7.75;;;5.65;;
30458;SDS011;17254;50.976;7.034;2023-03-29T00:18:46;7.82;;;5.80;;
30458;SDS011;17254;50.976;7.034;2023-03-29T00:18:52;7.67;;;5.87;;
30458;SDS011;17254;50.976;7.034;2023-03-29T00:18:59;7.73;;;5.83;;
30458;SDS011;17254;50.976;7.034;2023-03-29T00:19:05;7.57;;;6.10;;
30458;SDS011;17254;50.976;7.034;2023-03-29T00:19:11;7.32;;;6.18;;
30458;SDS011;17254;50.976;7.034;2023-03-29T00:19:17;7.43;;;6.18;;
30458;SDS011;17254;50.976;7.034;2023-03-29T00:19:23;7.43;;;6.17;;
30458;SDS011;17254;50.976;7.034;2023-03-29T00:19:29;7.77;;;6.27;;
30458;SDS011;17254;50.976;7.034;2023-03-29T00:19:41;8.66;;;6.00;;
30458;SDS011;17254;50.976;7.034;2023-03-29T00:19:47;8.90;;;5.83;;
30458;SDS011;17254;50.976;7.034;2023-03-29T00:19:55;8.10;;;5.57;;
30458;SDS011;17254;50.976;7.034;2023-03-29T00:20:01;7.53;;;5.20;;
30458;SDS011;17254;50.976;7.034;2023-03-29T00:20:09;6.50;;;5.20;;
30458;SDS011;17254;50.976;7.034;2023-03-29T00:20:16;6.66;;;5.34;;
30458;SDS011;17254;50.976;7.034;2023-03-29T00:20:22;7.50;;;5.60;;
30458;SDS011;17254;50.976;7.034;2023-03-29T00:20:29;7.87;;;5.73;;
30458;SDS011;17254;50.976;7.034;2023-03-29T00:20:35;8.27;;;5.97;;
30458;SDS011;17254;50.976;7.034;2023-03-29T00:20:41;8.40;;;5.82;;
30458;SDS011;17254;50.976;7.034;2023-03-29T00:20:52;8.23;;;5.40;;
30458;SDS011;17254;50.976;7.034;2023-03-29T00:20:59;8.05;;;5.35;;
30458;SDS011;17254;50.976;7.034;2023-03-29T00:21:05;8.00;;;5.50;;
30458;SDS011;17254;50.976;7.034;2023-03-29T00:21:11;7.37;;;5.67;;
30458;SDS011;17254;50.976;7.034;2023-03-29T00:21:17;7.95;;;5.88;;
30458;SDS011;17254;50.976;7.034;2023-03-29T00:21:24;7.87;;;5.80;;
30458;SDS011;17254;50.976;7.034;2023-03-29T00:21:30;7.53;;;5.87;;
30458;SDS011;17254;50.976;7.034;2023-03-29T00:21:36;7.72;;;5.93;;
30458;SDS011;17254;50.976;7.034;2023-03-29T00:21:42;8.30;;;5.77;;
30458;SDS011;17254;50.976;7.034;2023-03-29T00:21:48;8.15;;;5.68;;
30458;SDS011;17254;50.976;7.034;2023-03-29T00:21:54;8.80;;;5.72;;
30458;SDS011;17254;50.976;7.034;2023-03-29T00:22:00;8.43;;;5.55;;
30458;SDS011;17254;50.976;7.034;2023-03-29T00:22:06;8.23;;;5.35;;
30458;SDS011;17254;50.976;7.034;2023-03-29T00:22:12;8.15;;;5.45;;
30458;SDS011;17254;50.976;7.034;2023-03-29T00:22:19;8.90;;;5.47;;
30458;SDS011;17254;50.976;7.034;2023-03-29T00:22:25;8.68;;;5.58;;
30458;SDS011;17254;50.976;7.034;2023-03-29T00:22:31;8.68;;;5.53;;
30458;SDS011;17254;50.976;7.034;2023-03-29T00:22:37;8.93;;;5.60;;
30458;SDS011;17254;50.976;7.034;2023-03-29T00:22:46;8.42;;;5.80;;
30458;SDS011;17254;50.976;7.034;2023-03-29T00:22:53;8.08;;;5.86;;
30458;SDS011;17254;50.976;7.034;2023-03-29T00:22:59;8.13;;;5.72;;
30458;SDS011;17254;50.976;7.034;2023-03-29T00:23:05;8.50;;;5.93;;
30458;SDS011;17254;50.976;7.034;2023-03-29T00:23:11;8.60;;;5.60;;
30458;SDS011;17254;50.976;7.034;2023-03-29T00:23:17;8.90;;;5.50;;
30458;SDS011;17254;50.976;7.034;2023-03-29T00:23:23;8.48;;;5.55;;
30458;SDS011;17254;50.976;7.034;2023-03-29T00:23:29;8.57;;;5.68;;
30458;SDS011;17254;50.976;7.034;2023-03-29T00:23:35;8.40;;;5.53;;
30458;SDS011;17254;50.976;7.034;2023-03-29T00:23:42;8.13;;;5.68;;
30458;SDS011;17254;50.976;7.034;2023-03-29T00:23:48;7.40;;;5.72;;
30458;SDS011;17254;50.976;7.034;2023-03-29T00:23:54;7.43;;;5.70;;
30458;SDS011;17254;50.976;7.034;2023-03-29T00:24:02;7.63;;;5.68;;
30458;SDS011;17254;50.976;7.034;2023-03-29T00:24:08;7.96;;;5.70;;
30458;SDS011;17254;50.976;7.034;2023-03-29T00:24:14;8.13;;;5.67;;
30458;SDS011;17254;50.976;7.034;2023-03-29T00:24:20;8.30;;;5.80;;
30458;SDS011;17254;50.976;7.034;2023-03-29T00:24:27;7.83;;;5.75;;
30458;SDS011;17254;50.976;7.034;2023-03-29T00:24:33;7.43;;;5.82;;
30458;SDS011;17254;50.976;7.034;2023-03-29T00:24:40;7.15;;;5.75;;
30458;SDS011;17254;50.976;7.034;2023-03-29T00:24:46;7.25;;;5.78;;
30458;SDS011;17254;50.976;7.034;2023-03-29T00:24:53;7.63;;;5.67;;
30458;SDS011;17254;50.976;7.034;2023-03-29T00:24:59;7.70;;;5.85;;
30458;SDS011;17254;50.976;7.034;2023-03-29T00:25:05;7.60;;;5.80;;
30458;SDS011;17254;50.976;7.034;2023-03-29T00:25:12;7.90;;;6.03;;
30458;SDS011;17254;50.976;7.034;2023-03-29T00:25:18;7.85;;;6.20;;
30458;SDS011;17254;50.976;7.034;2023-03-29T00:25:25;8.43;;;6.13;;
30458;SDS011;17254;50.976;7.034;2023-03-29T00:25:31;8.80;;;6.10;;
30458;SDS011;17254;50.976;7.034;2023-03-29T00:25:42;8.68;;;6.10;;
30458;SDS011;17254;50.976;7.034;2023-03-29T00:25:49;7.93;;;5.73;;
30458;SDS011;17254;50.976;7.034;2023-03-29T00:25:55;7.15;;;5.60;;
30458;SDS011;17254;50.976;7.034;2023-03-29T00:26:01;7.42;;;5.64;;
30458;SDS011;17254;50.976;7.034;2023-03-29T00:26:08;7.13;;;5.60;;
30458;SDS011;17254;50.976;7.034;2023-03-29T00:26:15;8.10;;;5.63;;
30458;SDS011;17254;50.976;7.034;2023-03-29T00:26:21;8.60;;;5.77;;
30458;SDS011;17254;50.976;7.034;2023-03-29T00:26:27;7.97;;;5.72;;
30458;SDS011;17254;50.976;7.034;2023-03-29T00:26:33;7.90;;;5.50;;
30458;SDS011;17254;50.976;7.034;2023-03-29T00:26:39;8.27;;;5.60;;
30458;SDS011;17254;50.976;7.034;2023-03-29T00:26:46;7.80;;;5.65;;
30458;SDS011;17254;50.976;7.034;2023-03-29T00:26:52;7.87;;;5.60;;
30458;SDS011;17254;50.976;7.034;2023-03-29T00:26:58;7.85;;;5.53;;
30458;SDS011;17254;50.976;7.034;2023-03-29T00:27:05;8.08;;;5.82;;
30458;SDS011;17254;50.976;7.034;2023-03-29T00:27:11;7.80;;;5.85;;
30458;SDS011;17254;50.976;7.034;2023-03-29T00:27:17;7.70;;;5.77;;
30458;SDS011;17254;50.976;7.034;2023-03-29T00:27:23;7.57;;;5.73;;
30458;SDS011;17254;50.976;7.034;2023-03-29T00:27:29;7.43;;;5.77;;
30458;SDS011;17254;50.976;7.034;2023-03-29T00:27:35;7.45;;;5.55;;
30458;SDS011;17254;50.976;7.034;2023-03-29T00:27:42;7.90;;;5.73;;
30458;SDS011;17254;50.976;7.034;2023-03-29T00:27:48;7.70;;;5.90;;
30458;SDS011;17254;50.976;7.034;2023-03-29T00:27:54;8.07;;;6.03;;
30458;SDS011;17254;50.976;7.034;2023-03-29T00:28:00;8.82;;;6.20;;
30458;SDS011;17254;50.976;7.034;2023-03-29T00:28:06;8.82;;;6.18;;
30458;SDS011;17254;50.976;7.034;2023-03-29T00:28:12;8.13;;;5.80;;
30458;SDS011;17254;50.976;7.034;2023-03-29T00:28:20;8.20;;;5.90;;
30458;SDS011;17254;50.976;7.034;2023-03-29T00:28:27;8.00;;;5.90;;
30458;SDS011;17254;50.976;7.034;2023-03-29T00:28:33;7.37;;;5.73;;
30458;SDS011;17254;50.976;7.034;2023-03-29T00:28:40;7.38;;;5.68;;
30458;SDS011;17254;50.976;7.034;2023-03-29T00:28:46;7.78;;;5.68;;
30458;SDS011;17254;50.976;7.034;2023-03-29T00:28:53;7.70;;;5.55;;
30458;SDS011;17254;50.976;7.034;2023-03-29T00:29:00;8.23;;;5.67;;
30458;SDS011;17254;50.976;7.034;2023-03-29T00:29:05;8.52;;;5.70;;
30458;SDS011;17254;50.976;7.034;2023-03-29T00:29:12;9.25;;;5.78;;
30458;SDS011;17254;50.976;7.034;2023-03-29T00:29:18;9.04;;;5.86;;
30458;SDS011;17254;50.976;7.034;2023-03-29T00:29:24;8.77;;;5.88;;
30458;SDS011;17254;50.976;7.034;2023-03-29T00:29:30;8.27;;;5.80;;
30458;SDS011;17254;50.976;7.034;2023-03-29T00:29:36;8.05;;;5.93;;
30458;SDS011;17254;50.976;7.034;2023-03-29T00:29:42;7.23;;;5.97;;
30458;SDS011;17254;50.976;7.034;2023-03-29T00:29:49;6.95;;;5.78;;
30458;SDS011;17254;50.976;7.034;2023-03-29T00:29:55;6.55;;;5.68;;
30458;SDS011;17254;50.976;7.034;2023-03-29T00:30:02;6.70;;;5.80;;
30458;SDS011;17254;50.976;7.034;2023-03-29T00:30:10;6.53;;;5.67;;
30458;SDS011;17254;50.976;7.034;2023-03-29T00:30:17;6.90;;;5.66;;
30458;SDS011;17254;50.976;7.034;2023-03-29T00:30:23;6.80;;;5.70;;
30458;SDS011;17254;50.976;7.034;2023-03-29T00:30:29;6.77;;;5.57;;
30458;SDS011;17254;50.976;7.034;2023-03-29T00:30:35;6.90;;;5.70;;
30458;SDS011;17254;50.976;7.034;2023-03-29T00:30:41;6.93;;;5.70;;
30458;SDS011;17254;50.976;7.034;2023-03-29T00:30:47;6.70;;;5.57;;
30458;SDS011;17254;50.976;7.034;2023-03-29T00:31:02;7.78;;;5.68;;
30458;SDS011;17254;50.976;7.034;2023-03-29T00:31:09;7.82;;;5.66;;
30458;SDS011;17254;50.976;7.034;2023-03-29T00:31:17;8.27;;;5.73;;
30458;SDS011;17254;50.976;7.034;2023-03-29T00:31:23;7.06;;;5.58;;
30458;SDS011;17254;50.976;7.034;2023-03-29T00:31:31;7.30;;;5.72;;
30458;SDS011;17254;50.976;7.034;2023-03-29T00:31:37;8.07;;;5.68;;
30458;SDS011;17254;50.976;7.034;2023-03-29T00:31:43;8.48;;;5.57;;
30458;SDS011;17254;50.976;7.034;2023-03-29T00:31:55;8.63;;;5.80;;
30458;SDS011;17254;50.976;7.034;2023-03-29T00:32:01;8.57;;;5.60;;
30458;SDS011;17254;50.976;7.034;2023-03-29T00:32:07;7.13;;;5.50;;
30458;SDS011;17254;50.976;7.034;2023-03-29T00:32:13;6.57;;;5.50;;
30458;SDS011;17254;50.976;7.034;2023-03-29T00:32:19;6.93;;;5.40;;
30458;SDS011;17254;50.976;7.034;2023-03-29T00:32:25;6.87;;;5.20;;
30458;SDS011;17254;50.976;7.034;2023-03-29T00:32:31;6.65;;;5.25;;
30458;SDS011;17254;50.976;7.034;2023-03-29T00:32:38;7.55;;;5.55;;
30458;SDS011;17254;50.976;7.034;2023-03-29T00:32:44;7.82;;;5.62;;
30458;SDS011;17254;50.976;7.034;2023-03-29T00:32:50;7.90;;;5.80;;
30458;SDS011;17254;50.976;7.034;2023-03-29T00:32:57;8.60;;;6.00;;
30458;SDS011;17254;50.976;7.034;2023-03-29T00:33:03;8.60;;;6.05;;
30458;SDS011;17254;50.976;7.034;2023-03-29T00:33:09;8.07;;;5.97;;
30458;SDS011;17254;50.976;7.034;2023-03-29T00:33:16;7.80;;;5.95;;
30458;SDS011;17254;50.976;7.034;2023-03-29T00:33:23;7.20;;;5.73;;
30458;SDS011;17254;50.976;7.034;2023-03-29T00:33:29;7.75;;;5.78;;
30458;SDS011;17254;50.976;7.034;2023-03-29T00:33:35;7.40;;;5.70;;
30458;SDS011;17254;50.976;7.034;2023-03-29T00:33:42;7.07;;;5.67;;
30458;SDS011;17254;50.976;7.034;2023-03-29T00:33:48;7.13;;;5.63;;
30458;SDS011;17254;50.976;7.034;2023-03-29T00:33:54;7.10;;;5.60;;
30458;SDS011;17254;50.976;7.034;2023-03-29T00:34:00;6.40;;;5.63;;
30458;SDS011;17254;50.976;7.034;2023-03-29T00:34:07;6.44;;;5.70;;
30458;SDS011;17254;50.976;7.034;2023-03-29T00:34:15;6.55;;;5.65;;
30458;SDS011;17254;50.976;7.034;2023-03-29T00:34:21;6.53;;;5.68;;
30458;SDS011;17254;50.976;7.034;2023-03-29T00:34:28;6.80;;;5.63;;
30458;SDS011;17254;50.976;7.034;2023-03-29T00:34:35;7.73;;;5.73;;
30458;SDS011;17254;50.976;7.034;2023-03-29T00:34:41;7.85;;;5.80;;
30458;SDS011;17254;50.976;7.034;2023-03-29T00:34:49;8.57;;;5.80;;
30458;SDS011;17254;50.976;7.034;2023-03-29T00:34:56;8.63;;;5.97;;
30458;SDS011;17254;50.976;7.034;2023-03-29T00:35:02;8.53;;;5.60;;
30458;SDS011;17254;50.976;7.034;2023-03-29T00:35:09;8.63;;;5.57;;
30458;SDS011;17254;50.976;7.034;2023-03-29T00:35:15;7.85;;;5.47;;
30458;SDS011;17254;50.976;7.034;2023-03-29T00:35:21;8.20;;;5.57;;
30458;SDS011;17254;50.976;7.034;2023-03-29T00:35:27;9.23;;;5.60;;
30458;SDS011;17254;50.976;7.034;2023-03-29T00:35:33;8.35;;;5.60;;
30458;SDS011;17254;50.976;7.034;2023-03-29T00:35:41;7.70;;;5.55;;
30458;SDS011;17254;50.976;7.034;2023-03-29T00:35:50;7.87;;;5.63;;
30458;SDS011;17254;50.976;7.034;2023-03-29T00:35:57;6.50;;;5.77;;
30458;SDS011;17254;50.976;7.034;2023-03-29T00:36:03;6.70;;;5.78;;
30458;SDS011;17254;50.976;7.034;2023-03-29T00:36:10;7.15;;;5.70;;
30458;SDS011;17254;50.976;7.034;2023-03-29T00:36:17;7.12;;;5.74;;
30458;SDS011;17254;50.976;7.034;2023-03-29T00:36:23;7.32;;;5.53;;
30458;SDS011;17254;50.976;7.034;2023-03-29T00:36:28;7.65;;;5.47;;
30458;SDS011;17254;50.976;7.034;2023-03-29T00:36:35;8.00;;;5.63;;
30458;SDS011;17254;50.976;7.034;2023-03-29T00:36:40;7.82;;;5.53;;
30458;SDS011;17254;50.976;7.034;2023-03-29T00:36:47;8.70;;;5.60;;
30458;SDS011;17254;50.976;7.034;2023-03-29T00:36:55;8.67;;;5.70;;
30458;SDS011;17254;50.976;7.034;2023-03-29T00:37:02;8.23;;;5.57;;
30458;SDS011;17254;50.976;7.034;2023-03-29T00:37:10;8.47;;;5.80;;
30458;SDS011;17254;50.976;7.034;2023-03-29T00:37:18;8.28;;;5.95;;
30458;SDS011;17254;50.976;7.034;2023-03-29T00:37:26;8.57;;;6.10;;
30458;SDS011;17254;50.976;7.034;2023-03-29T00:37:34;8.70;;;6.20;;
30458;SDS011;17254;50.976;7.034;2023-03-29T00:37:40;8.13;;;6.10;;
30458;SDS011;17254;50.976;7.034;2023-03-29T00:37:46;7.55;;;6.05;;
30458;SDS011;17254;50.976;7.034;2023-03-29T00:37:54;7.93;;;6.03;;
30458;SDS011;17254;50.976;7.034;2023-03-29T00:38:01;7.83;;;5.90;;
30458;SDS011;17254;50.976;7.034;2023-03-29T00:38:10;7.92;;;6.02;;
30458;SDS011;17254;50.976;7.034;2023-03-29T00:38:16;8.64;;;5.94;;
30458;SDS011;17254;50.976;7.034;2023-03-29T00:38:22;8.70;;;5.90;;
30458;SDS011;17254;50.976;7.034;2023-03-29T00:38:28;8.85;;;5.97;;
30458;SDS011;17254;50.976;7.034;2023-03-29T00:38:35;9.27;;;5.90;;
30458;SDS011;17254;50.976;7.034;2023-03-29T00:38:42;9.00;;;5.80;;
30458;SDS011;17254;50.976;7.034;2023-03-29T00:38:48;8.35;;;5.72;;
30458;SDS011;17254;50.976;7.034;2023-03-29T00:38:54;7.95;;;5.63;;
30458;SDS011;17254;50.976;7.034;2023-03-29T00:39:00;7.90;;;5.80;;
30458;SDS011;17254;50.976;7.034;2023-03-29T00:39:06;7.85;;;5.90;;
30458;SDS011;17254;50.976;7.034;2023-03-29T00:39:13;8.97;;;5.97;;
30458;SDS011;17254;50.976;7.034;2023-03-29T00:39:19;9.35;;;6.10;;
30458;SDS011;17254;50.976;7.034;2023-03-29T00:39:26;9.56;;;6.34;;
30458;SDS011;17254;50.976;7.034;2023-03-29T00:39:34;9.26;;;6.16;;
30458;SDS011;17254;50.976;7.034;2023-03-29T00:39:40;8.60;;;6.06;;
30458;SDS011;17254;50.976;7.034;2023-03-29T00:39:46;8.25;;;6.18;;
30458;SDS011;17254;50.976;7.034;2023-03-29T00:39:52;7.20;;;5.63;;
30458;SDS011;17254;50.976;7.034;2023-03-29T00:39:58;7.55;;;5.70;;
30458;SDS011;17254;50.976;7.034;2023-03-29T00:40:04;7.40;;;5.60;;
30458;SDS011;17254;50.976;7.034;2023-03-29T00:40:14;7.39;;;5.50;;
30458;SDS011;17254;50.976;7.034;2023-03-29T00:40:21;7.70;;;5.47;;
30458;SDS011;17254;50.976;7.034;2023-03-29T00:40:28;7.28;;;5.25;;
30458;SDS011;17254;50.976;7.034;2023-03-29T00:40:34;7.28;;;5.28;;
30458;SDS011;17254;50.976;7.034;2023-03-29T00:40:46;7.39;;;5.25;;